Time;durP1;ratioP1;P1;durP2;ratioP2;P2;SDS_P1;SDS_P2;PMS_P1;PMS_P2;Temp;Humidity;BMP_temperature;BMP_pressure;BME280_temperature;BME280_humidity;BME280_pressure;Samples;Min_cycle;Max_cycle;Signal;HPM_P1;HPM_P2
2022/09/25 00:01:36;;;;;;;10.98;6.50;;;;;;;15.83;66.34;100277.50;5062665;28;20024;-64
2022/09/25 00:04:03;;;;;;;12.00;6.32;;;;;;;15.77;66.38;100272.75;5064403;28;20052;-64
2022/09/25 00:06:29;;;;;;;8.27;6.13;;;;;;;15.84;66.10;100284.59;5062995;28;20055;-66
2022/09/25 00:08:55;;;;;;;8.93;6.45;;;;;;;15.82;66.45;100281.22;5063802;28;20036;-66
2022/09/25 00:11:27;;;;;;;7.20;5.88;;;;;;;15.79;66.31;100276.16;5063079;28;20433;-66
2022/09/25 00:13:54;;;;;;;9.70;6.18;;;;;;;15.78;66.74;100270.91;5074257;28;20021;-66
2022/09/25 00:16:24;;;;;;;9.23;6.75;;;;;;;15.77;66.85;100270.03;5061453;28;20151;-67
2022/09/25 00:21:35;;;;;;;13.38;7.05;;;;;;;15.82;66.60;100269.53;5068194;28;20081;-65
2022/09/25 00:24:03;;;;;;;8.65;6.10;;;;;;;15.81;66.35;100270.56;5065780;28;20033;-66
2022/09/25 00:26:31;;;;;;;11.75;7.32;;;;;;;15.79;66.38;100268.03;5065724;28;20016;-65
2022/09/25 00:29:00;;;;;;;11.02;6.85;;;;;;;15.77;66.40;100267.34;5066518;28;20021;-67
2022/09/25 00:31:26;;;;;;;11.63;6.35;;;;;;;15.78;66.36;100263.66;5062458;28;20028;-67
2022/09/25 00:33:53;;;;;;;9.50;6.45;;;;;;;15.73;66.12;100257.03;5073115;28;20044;-66
2022/09/25 00:36:19;;;;;;;11.07;6.72;;;;;;;15.79;65.93;100276.16;5073663;28;20434;-66
2022/09/25 00:38:49;;;;;;;8.18;6.88;;;;;;;15.76;65.40;100264.81;5063164;28;20468;-67
2022/09/25 00:41:17;;;;;;;10.50;7.25;;;;;;;15.76;65.46;100267.50;5059773;28;20112;-67
2022/09/25 00:43:43;;;;;;;12.38;6.63;;;;;;;15.78;65.59;100268.19;5063376;28;20025;-67
2022/09/25 00:46:24;;;;;;;13.10;7.07;;;;;;;15.76;65.42;100260.25;5081622;28;20024;-66
2022/09/25 00:48:55;;;;;;;10.85;6.53;;;;;;;15.70;65.56;100252.81;5064495;28;20119;-67
2022/09/25 00:51:28;;;;;;;11.20;6.97;;;;;;;15.75;65.50;100261.28;5064922;28;20033;-67
2022/09/25 00:53:58;;;;;;;8.60;6.90;;;;;;;15.73;65.77;100257.03;5059555;28;20048;-67
2022/09/25 00:56:27;;;;;;;10.02;6.55;;;;;;;15.73;65.86;100259.72;5068941;28;20020;-65
2022/09/25 00:58:53;;;;;;;11.25;6.57;;;;;;;15.73;65.91;100260.59;5062676;28;20020;-67
2022/09/25 01:01:18;;;;;;;10.45;6.80;;;;;;;15.70;66.05;100250.09;5062018;28;20051;-66
2022/09/25 01:03:45;;;;;;;10.35;6.05;;;;;;;15.69;65.80;100247.56;5070429;28;20020;-66
2022/09/25 01:06:13;;;;;;;10.30;7.15;;;;;;;15.67;66.17;100244.19;5058808;28;20702;-67
2022/09/25 01:08:40;;;;;;;9.65;6.63;;;;;;;15.69;65.75;100253.84;5069694;28;20039;-66
2022/09/25 01:11:05;;;;;;;11.25;6.70;;;;;;;15.69;65.76;100247.56;5063088;28;20060;-66
2022/09/25 01:13:31;;;;;;;9.10;6.80;;;;;;;15.66;66.20;100251.47;5062234;28;20804;-65
2022/09/25 01:16:13;;;;;;;11.73;7.13;;;;;;;15.64;66.34;100242.66;5068032;28;20028;-64
2022/09/25 01:19:07;;;;;;;11.15;6.93;;;;;;;15.62;66.81;100247.41;5052600;28;20490;-65
2022/09/25 01:21:41;;;;;;;10.90;7.03;;;;;;;15.60;67.25;100238.63;5080627;28;20055;-67
2022/09/25 01:24:09;;;;;;;;;;;;;;;15.60;67.05;100248.56;5072724;28;20028;-65
2022/09/25 01:26:53;;;;;;;11.32;6.82;;;;;;;15.59;67.27;100241.50;5086219;28;19965;-65
2022/09/25 01:29:33;;;;;;;10.13;6.70;;;;;;;15.51;67.61;100239.63;5066099;28;20533;-66
2022/09/25 01:32:05;;;;;;;9.25;7.22;;;;;;;15.55;67.77;100242.84;5065732;28;20094;-65
2022/09/25 01:34:48;;;;;;;19.83;7.03;;;;;;;15.54;67.83;100238.44;5072710;28;20487;-65
2022/09/25 01:37:39;;;;;;;13.07;6.90;;;;;;;15.53;68.27;100239.44;5067306;28;20025;-65
2022/09/25 01:40:07;;;;;;;8.73;7.03;;;;;;;15.50;68.47;100237.94;5064975;28;20082;-66
2022/09/25 01:42:44;;;;;;;8.75;6.80;;;;;;;15.47;68.41;100246.38;5070576;28;20028;-65
2022/09/25 01:45:19;;;;;;;10.23;7.05;;;;;;;15.39;68.72;100234.72;5066431;28;20393;-65
2022/09/25 01:47:47;;;;;;;10.15;7.00;;;;;;;15.42;69.40;100237.91;5050481;28;20024;-66
2022/09/25 01:50:22;;;;;;;8.32;6.60;;;;;;;15.43;69.14;100245.03;5065804;28;20035;-65
2022/09/25 01:52:53;;;;;;;9.15;7.03;;;;;;;15.42;69.00;100243.31;5067278;28;20805;-66
2022/09/25 01:55:30;;;;;;;8.93;6.22;;;;;;;15.41;68.89;100241.66;5066276;28;20859;-66
2022/09/25 01:58:07;;;;;;;9.75;6.70;;;;;;;15.39;69.07;100243.69;5047567;28;20051;-65
2022/09/25 02:00:36;;;;;;;9.82;6.50;;;;;;;15.38;68.95;100244.69;5082768;28;20036;-65
2022/09/25 02:03:29;;;;;;;11.35;6.45;;;;;;;15.36;68.86;100244.00;5075223;28;20040;-66
2022/09/25 02:06:01;;;;;;;8.10;5.93;;;;;;;15.38;68.75;100239.28;5079413;28;20495;-64
2022/09/25 02:08:34;;;;;;;11.93;6.57;;;;;;;15.38;68.92;100241.97;5049585;28;20082;-66
2022/09/25 02:11:02;;;;;;;7.47;6.03;;;;;;;15.38;68.74;100241.16;5065754;28;20043;-66
2022/09/25 02:13:36;;;;;;;7.63;5.65;;;;;;;15.35;68.71;100239.56;5076416;28;20074;-66
2022/09/25 02:16:08;;;;;;;6.35;5.57;;;;;;;15.38;68.98;100238.44;5073834;28;20472;-64
2022/09/25 02:21:43;;;;;;;7.78;5.70;;;;;;;15.38;68.69;100228.47;5065916;28;20039;-63
2022/09/25 02:24:24;;;;;;;8.02;5.70;;;;;;;15.40;69.00;100244.50;5065219;28;20561;-63
2022/09/25 02:26:50;;;;;;;9.68;6.00;;;;;;;15.38;69.26;100239.28;5046015;28;20032;-63
2022/09/25 02:29:17;;;;;;;6.45;5.00;;;;;;;15.37;68.91;100231.34;5065153;28;20028;-64
2022/09/25 02:31:52;;;;;;;8.50;5.85;;;;;;;15.35;69.00;100226.06;5076980;28;20413;-63
2022/09/25 02:34:18;;;;;;;8.43;5.20;;;;;;;15.38;68.96;100243.84;5046924;28;20048;-63
2022/09/25 02:36:44;;;;;;;8.43;5.80;;;;;;;15.39;68.99;100234.72;5071207;28;20101;-63
2022/09/25 02:39:12;;;;;;;9.20;5.13;;;;;;;15.36;68.96;100229.63;5071263;28;20100;-63
2022/09/25 02:41:59;;;;;;;7.85;5.50;;;;;;;15.29;68.83;100224.00;5046046;28;20060;-64
2022/09/25 02:44:27;;;;;;;10.30;5.75;;;;;;;15.39;69.15;100234.72;5072259;28;20676;-64
2022/09/25 02:47:26;;;;;;;9.07;5.78;;;;;;;15.39;69.23;100235.56;5064712;28;20024;-64
2022/09/25 02:50:15;;;;;;;8.10;5.28;;;;;;;15.41;70.07;100236.25;5070814;28;20028;-64
2022/09/25 02:53:17;;;;;;;9.50;6.28;;;;;;;15.40;70.83;100237.25;5050020;28;20084;-64
2022/09/25 02:55:58;;;;;;;7.88;6.20;;;;;;;15.42;70.83;100242.50;5081830;28;20035;-64
2022/09/25 02:58:32;;;;;;;7.20;5.30;;;;;;;15.46;70.89;100238.44;5054434;28;20040;-64
2022/09/25 03:01:00;;;;;;;7.50;5.55;;;;;;;15.44;70.04;100229.63;5076231;28;20116;-65
2022/09/25 03:03:26;;;;;;;7.47;5.95;;;;;;;15.43;70.34;100217.16;5065104;28;20077;-65
2022/09/25 03:05:55;;;;;;;8.90;5.72;;;;;;;15.43;70.19;100226.13;5082381;28;20066;-64
2022/09/25 03:08:38;;;;;;;11.00;5.70;;;;;;;15.37;69.77;100202.47;5083572;28;20093;-64
2022/09/25 03:11:12;;;;;;;7.72;5.50;;;;;;;15.40;69.55;100212.94;5064675;28;20052;-64
2022/09/25 03:13:38;;;;;;;;;;;;;;;15.39;69.85;100218.50;5077815;28;20649;-64
2022/09/25 03:16:06;;;;;;;7.47;5.32;;;;;;;15.40;69.20;100217.47;5066487;28;20014;-64
2022/09/25 03:18:31;;;;;;;8.75;6.13;;;;;;;15.37;69.05;100215.97;5047368;28;20047;-67
2022/09/25 03:20:57;;;;;;;7.45;5.70;;;;;;;15.34;68.79;100215.41;5078536;28;20032;-67
2022/09/25 03:23:24;;;;;;;8.65;5.68;;;;;;;15.38;69.05;100212.25;5049086;28;20476;-67
2022/09/25 03:25:52;;;;;;;7.47;5.15;;;;;;;15.38;68.62;100206.84;5059688;28;20403;-67
2022/09/25 03:28:18;;;;;;;7.90;5.50;;;;;;;15.37;68.55;100207.00;5065435;28;20510;-67
2022/09/25 03:30:55;;;;;;;7.80;5.60;;;;;;;15.39;68.66;100218.50;5066750;28;20036;-66
2022/09/25 03:33:20;;;;;;;7.60;4.72;;;;;;;15.35;68.61;100206.31;5067381;28;20052;-65
2022/09/25 03:35:45;;;;;;;7.05;4.65;;;;;;;15.37;68.54;100215.97;5057609;28;20020;-65
2022/09/25 03:38:11;;;;;;;7.43;5.20;;;;;;;15.38;68.80;100228.47;5058075;28;20111;-66
2022/09/25 03:40:36;;;;;;;8.80;5.28;;;;;;;15.32;68.77;100203.94;5063079;28;20067;-67
2022/09/25 03:43:02;;;;;;;7.18;5.13;;;;;;;15.31;68.83;100203.09;5046649;28;20143;-66
2022/09/25 03:45:27;;;;;;;9.73;6.15;;;;;;;15.40;68.76;100214.78;5051982;28;20380;-66
2022/09/25 03:47:53;;;;;;;7.60;5.40;;;;;;;15.39;68.97;100216.66;5064408;28;20512;-66
2022/09/25 03:50:18;;;;;;;5.88;4.95;;;;;;;15.39;68.42;100224.75;5072008;28;20075;-66
2022/09/25 03:52:44;;;;;;;7.05;5.13;;;;;;;15.39;68.04;100216.66;5084982;28;20089;-65
2022/09/25 03:55:10;;;;;;;6.57;5.07;;;;;;;15.37;68.16;100213.28;5064393;28;20107;-65
2022/09/25 03:57:37;;;;;;;8.02;5.15;;;;;;;15.39;68.33;100215.81;5080036;28;20487;-67
2022/09/25 04:00:03;;;;;;;6.65;4.90;;;;;;;15.31;68.28;100200.38;5078346;28;20023;-65
2022/09/25 04:02:29;;;;;;;7.57;5.38;;;;;;;15.42;68.77;100219.00;5063072;28;20025;-65
2022/09/25 04:04:54;;;;;;;8.40;5.13;;;;;;;15.36;68.98;100208.88;5064904;28;20117;-66
2022/09/25 04:07:21;;;;;;;7.82;5.22;;;;;;;15.42;69.33;100218.16;5063684;28;20036;-66
2022/09/25 04:09:46;;;;;;;7.43;5.20;;;;;;;15.42;69.27;100224.41;5064570;28;20034;-66
2022/09/25 04:12:12;;;;;;;8.73;5.25;;;;;;;15.40;69.44;100214.78;5072778;28;20024;-65
2022/09/25 04:14:38;;;;;;;5.82;4.63;;;;;;;15.43;69.75;100220.72;5059057;28;20029;-66
2022/09/25 04:17:03;;;;;;;6.80;4.90;;;;;;;15.43;69.75;100214.44;5059113;28;20036;-66
2022/09/25 04:19:29;;;;;;;6.68;4.75;;;;;;;15.39;69.87;100213.97;5064488;28;20020;-65
2022/09/25 04:21:54;;;;;;;7.72;4.95;;;;;;;15.45;70.44;100225.94;5046000;28;20132;-66
2022/09/25 04:27:04;;;;;;;6.55;4.90;;;;;;;15.46;71.20;100214.13;5063373;28;20098;-63
2022/09/25 04:29:31;;;;;;;7.95;5.55;;;;;;;15.46;71.89;100216.81;5067974;28;20036;-63
2022/09/25 04:34:40;;;;;;;6.40;5.03;;;;;;;15.44;71.36;100208.03;5062979;28;20054;-62
2022/09/25 04:37:06;;;;;;;7.40;5.15;;;;;;;15.40;71.20;100195.88;5062906;28;20044;-62
2022/09/25 04:39:31;;;;;;;6.75;4.95;;;;;;;15.42;71.55;100205.47;5076179;28;20032;-63
2022/09/25 04:41:57;;;;;;;7.20;5.03;;;;;;;15.46;70.94;100212.25;5066950;28;20040;-62
2022/09/25 04:44:22;;;;;;;5.28;4.60;;;;;;;15.46;70.80;100216.81;5063433;28;20020;-64
2022/09/25 04:46:47;;;;;;;6.75;5.32;;;;;;;15.45;70.93;100207.03;5063989;28;20028;-64
2022/09/25 04:49:13;;;;;;;6.70;5.05;;;;;;;15.42;70.99;100210.06;5077231;28;20020;-63
2022/09/25 04:51:39;;;;;;;6.07;5.20;;;;;;;15.43;70.67;100217.16;5068429;28;20040;-63
2022/09/25 04:54:04;;;;;;;10.05;5.32;;;;;;;15.44;71.09;100219.69;5062872;28;20047;-63
2022/09/25 04:56:30;;;;;;;6.65;5.00;;;;;;;15.44;72.13;100211.56;5077285;28;20032;-64
2022/09/25 04:58:55;;;;;;;6.50;5.30;;;;;;;15.44;72.99;100214.28;5064526;28;20115;-64
2022/09/25 05:01:21;;;;;;;8.80;5.55;;;;;;;15.37;73.26;100202.47;5063219;28;20059;-63
2022/09/25 05:03:48;;;;;;;9.45;5.20;;;;;;;15.42;72.76;100210.06;5063892;28;20491;-66
2022/09/25 05:06:14;;;;;;;6.70;5.47;;;;;;;15.44;72.38;100213.44;5062987;28;20031;-66
2022/09/25 05:08:39;;;;;;;9.55;6.05;;;;;;;15.45;73.06;100205.16;5053069;28;20111;-66
2022/09/25 05:11:06;;;;;;;7.75;5.80;;;;;;;15.43;72.65;100201.78;5062743;28;20381;-67
2022/09/25 05:13:32;;;;;;;6.65;5.80;;;;;;;15.47;73.06;100215.78;5061090;28;20029;-67
2022/09/25 05:15:57;;;;;;;8.05;6.50;;;;;;;15.47;73.11;100213.94;5044579;28;20059;-67
2022/09/25 05:18:23;;;;;;;8.07;5.88;;;;;;;15.46;73.86;100211.41;5083514;28;20544;-67
2022/09/25 05:20:49;;;;;;;6.68;5.53;;;;;;;15.49;73.77;100224.59;5082931;28;20085;-65
2022/09/25 05:23:15;;;;;;;6.00;5.40;;;;;;;15.52;73.24;100235.06;5082949;28;20016;-66
2022/09/25 05:25:41;;;;;;;7.80;5.43;;;;;;;15.51;72.87;100234.22;5059519;28;20036;-66
2022/09/25 05:28:08;;;;;;;9.52;6.38;;;;;;;15.51;72.38;100231.50;5062900;28;20094;-65
2022/09/25 05:30:35;;;;;;;8.13;5.97;;;;;;;15.53;72.19;100226.78;5072524;28;20089;-65
2022/09/25 05:33:01;;;;;;;7.20;6.00;;;;;;;15.55;72.22;100229.34;5082450;28;20044;-65
2022/09/25 05:35:31;;;;;;;7.93;6.38;;;;;;;15.56;71.73;100229.16;5082236;28;20372;-67
2022/09/25 05:37:57;;;;;;;10.00;6.22;;;;;;;15.55;71.30;100223.94;5077216;28;20090;-66
2022/09/25 05:40:24;;;;;;;9.25;6.15;;;;;;;15.65;71.03;100241.69;5043516;28;20060;-66
2022/09/25 05:42:50;;;;;;;9.60;6.50;;;;;;;15.65;70.59;100247.09;5044023;28;20484;-67
2022/09/25 05:45:18;;;;;;;7.65;6.00;;;;;;;15.68;70.88;100254.81;5044414;28;20055;-66
2022/09/25 05:47:43;;;;;;;9.00;6.38;;;;;;;15.68;70.71;100257.53;5068479;28;20036;-66
2022/09/25 05:50:12;;;;;;;9.48;7.05;;;;;;;15.69;70.71;100261.94;5061187;28;20039;-66
2022/09/25 05:52:38;;;;;;;8.15;6.28;;;;;;;15.69;70.99;100253.84;5068014;28;20031;-66
2022/09/25 05:55:05;;;;;;;8.27;6.35;;;;;;;15.76;71.42;100251.28;5062063;28;20028;-66
2022/09/25 05:57:34;;;;;;;8.10;6.05;;;;;;;15.77;71.22;100248.41;5063005;28;20060;-68
2022/09/25 06:00:01;;;;;;;8.80;6.68;;;;;;;15.83;71.01;100258.56;5042345;28;20479;-63
2022/09/25 06:02:27;;;;;;;10.75;6.90;;;;;;;15.88;71.08;100253.50;5056853;28;20059;-64
2022/09/25 06:04:52;;;;;;;8.75;6.20;;;;;;;15.82;70.63;100239.78;5043337;28;20463;-64
2022/09/25 06:07:19;;;;;;;10.07;6.75;;;;;;;15.98;70.67;100255.16;5065249;28;20043;-64
2022/09/25 06:09:44;;;;;;;7.72;5.97;;;;;;;15.99;69.72;100251.47;5075024;28;20484;-65
2022/09/25 06:12:09;;;;;;;7.10;5.38;;;;;;;16.01;69.44;100239.44;5064658;28;20113;-65
2022/09/25 06:14:36;;;;;;;8.27;5.80;;;;;;;16.11;69.39;100248.22;5065019;28;20043;-65
2022/09/25 06:17:02;;;;;;;12.27;8.43;;;;;;;16.11;68.85;100245.50;5045504;28;20033;-64
2022/09/25 06:19:28;;;;;;;10.07;6.40;;;;;;;16.23;69.02;100248.69;5067688;28;20023;-65
2022/09/25 06:21:56;;;;;;;9.68;6.40;;;;;;;16.26;68.65;100251.06;5047507;28;20063;-65
2022/09/25 06:24:22;;;;;;;8.43;6.57;;;;;;;16.33;68.20;100250.22;5062320;28;20024;-65
2022/09/25 06:26:47;;;;;;;7.55;5.35;;;;;;;16.34;67.89;100249.19;5072999;28;20083;-65
2022/09/25 06:29:12;;;;;;;8.65;5.00;;;;;;;16.40;67.79;100262.03;5070439;28;20039;-64
2022/09/25 06:31:38;;;;;;;7.13;5.47;;;;;;;16.45;67.90;100256.13;5067159;28;20036;-65
2022/09/25 06:34:04;;;;;;;7.20;5.45;;;;;;;16.47;68.03;100252.22;5058131;28;20048;-63
2022/09/25 06:36:30;;;;;;;8.48;5.75;;;;;;;16.48;67.76;100250.38;5043090;28;20028;-63
2022/09/25 06:38:55;;;;;;;6.68;5.15;;;;;;;16.51;67.68;100258.16;5044854;28;20123;-64
2022/09/25 06:41:22;;;;;;;7.63;5.20;;;;;;;16.55;67.54;100263.03;5044970;28;20028;-64
2022/09/25 06:43:48;;;;;;;9.23;5.45;;;;;;;16.54;66.92;100258.63;5026576;28;20017;-64
2022/09/25 06:46:14;;;;;;;7.80;5.07;;;;;;;16.56;67.07;100261.16;5044800;28;20077;-63
2022/09/25 06:48:40;;;;;;;5.97;4.60;;;;;;;16.57;67.38;100266.41;5041201;28;20029;-64
2022/09/25 06:51:07;;;;;;;6.93;4.65;;;;;;;16.46;66.99;100247.84;5043860;28;20044;-63
2022/09/25 06:53:33;;;;;;;8.25;4.57;;;;;;;16.61;66.72;100266.91;5044679;28;20020;-64
2022/09/25 06:55:58;;;;;;;5.15;4.20;;;;;;;16.66;66.78;100268.06;5044635;28;20456;-66
2022/09/25 06:58:25;;;;;;;8.90;4.32;;;;;;;16.59;66.38;100247.28;5044461;28;20508;-66
2022/09/25 07:00:55;;;;;;;4.93;3.75;;;;;;;16.71;66.57;100264.84;5044392;28;20037;-66
2022/09/25 07:06:07;;;;;;;7.05;3.95;;;;;;;16.79;66.32;100271.06;5044295;28;20036;-67
2022/09/25 07:08:33;;;;;;;6.65;4.47;;;;;;;16.77;65.94;100256.03;5027171;28;20021;-67
2022/09/25 07:11:00;;;;;;;5.82;4.40;;;;;;;16.67;66.31;100244.56;5041016;28;20408;-67
2022/09/25 07:13:28;;;;;;;6.15;4.13;;;;;;;16.80;65.97;100250.25;5043740;28;20021;-67
2022/09/25 07:16:03;;;;;;;4.93;3.78;;;;;;;16.88;66.21;100258.31;5045172;28;20043;-67
2022/09/25 07:18:28;;;;;;;;;;;;;;;16.88;65.93;100264.59;5045559;28;20027;-66
2022/09/25 07:21:02;;;;;;;6.32;3.95;;;;;;;16.93;66.35;100262.19;5045340;28;19913;-66
2022/09/25 07:23:29;;;;;;;6.38;3.70;;;;;;;16.98;66.29;100258.94;5023314;28;20021;-66
2022/09/25 07:26:03;;;;;;;5.70;3.85;;;;;;;17.01;66.06;100259.47;5045487;28;20384;-65
2022/09/25 07:28:28;;;;;;;8.20;4.47;;;;;;;17.05;66.12;100251.81;5027081;28;20039;-66
2022/09/25 07:30:54;;;;;;;6.68;4.22;;;;;;;17.08;66.00;100251.44;5045402;28;20044;-66
2022/09/25 07:33:23;;;;;;;6.63;4.72;;;;;;;17.05;65.86;100241.81;5046352;28;20036;-67
2022/09/25 07:35:51;;;;;;;6.28;3.70;;;;;;;17.19;65.94;100253.78;5071310;28;20103;-65
2022/09/25 07:38:17;;;;;;;4.47;3.63;;;;;;;17.27;65.62;100256.41;5053644;28;20173;-67
2022/09/25 07:40:42;;;;;;;7.38;4.22;;;;;;;17.32;65.56;100235.88;5069163;28;20043;-67
2022/09/25 07:43:08;;;;;;;6.22;3.95;;;;;;;17.39;65.17;100239.59;5063350;28;20028;-68
2022/09/25 07:45:33;;;;;;;8.52;4.45;;;;;;;17.61;64.56;100240.63;5063742;28;20021;-67
2022/09/25 07:48:01;;;;;;;5.78;4.10;;;;;;;17.70;64.28;100244.94;5062469;28;20028;-67
2022/09/25 07:50:30;;;;;;;5.78;4.20;;;;;;;17.80;64.39;100246.41;5062848;28;20815;-67
2022/09/25 07:52:56;;;;;;;5.45;3.85;;;;;;;17.90;64.10;100227.16;5072598;28;20117;-68
2022/09/25 07:55:22;;;;;;;4.45;3.45;;;;;;;18.10;63.44;100231.03;5045285;28;20070;-67
2022/09/25 07:57:49;;;;;;;5.68;3.13;;;;;;;18.21;62.17;100224.31;5043714;28;20073;-67
2022/09/25 08:00:16;;;;;;;4.68;3.00;;;;;;;18.41;61.67;100234.44;5061067;28;20396;-64
2022/09/25 08:02:41;;;;;;;4.93;3.00;;;;;;;18.77;60.51;100218.25;5066142;28;20035;-63
2022/09/25 08:05:08;;;;;;;5.20;2.55;;;;;;;19.14;59.17;100221.63;5061960;28;20024;-64
2022/09/25 08:07:33;;;;;;;3.28;2.40;;;;;;;19.61;55.63;100226.56;5064394;28;20460;-64
2022/09/25 08:09:59;;;;;;;4.60;2.30;;;;;;;19.98;54.00;100221.66;5061100;28;20032;-66
2022/09/25 08:12:25;;;;;;;3.72;2.42;;;;;;;20.06;53.27;100224.22;5060810;28;20025;-67
2022/09/25 08:14:51;;;;;;;2.97;2.58;;;;;;;20.14;52.62;100218.69;5062213;28;20101;-65
2022/09/25 08:17:18;;;;;;;3.17;2.35;;;;;;;21.10;51.21;100215.03;5058254;28;20078;-66
2022/09/25 08:19:44;;;;;;;2.60;2.28;;;;;;;22.35;48.40;100210.31;5074400;28;20024;-66
2022/09/25 08:22:13;;;;;;;2.60;1.85;;;;;;;23.66;44.31;100204.31;5038293;28;20025;-67
2022/09/25 08:24:38;;;;;;;4.88;2.10;;;;;;;24.84;41.88;100193.94;5044023;28;20021;-67
2022/09/25 08:27:06;;;;;;;2.03;1.38;;;;;;;26.29;38.54;100194.31;5055848;28;20028;-67
2022/09/25 08:29:32;;;;;;;3.60;1.90;;;;;;;26.83;37.72;100193.94;5038481;28;20041;-66
2022/09/25 08:31:58;;;;;;;2.63;1.55;;;;;;;26.83;37.02;100190.31;5066093;28;20033;-67
2022/09/25 08:34:23;;;;;;;4.32;1.98;;;;;;;26.45;37.51;100197.19;5060210;28;20523;-67
2022/09/25 08:36:49;;;;;;;3.22;1.92;;;;;;;26.37;37.86;100197.53;5061653;28;20059;-67
2022/09/25 08:39:15;;;;;;;3.97;2.60;;;;;;;26.27;38.04;100190.94;5058297;28;20479;-67
2022/09/25 08:41:47;;;;;;;3.08;1.60;;;;;;;26.45;37.47;100201.84;5062711;28;20040;-66
2022/09/25 08:44:27;;;;;;;2.00;1.80;;;;;;;26.18;37.88;100204.22;5061462;28;20040;-65
2022/09/25 08:49:44;;;;;;;4.03;2.03;;;;;;;24.70;41.01;100200.66;5059403;28;20043;-65
2022/09/25 08:52:15;;;;;;;2.50;1.70;;;;;;;24.33;41.81;100202.50;5068901;28;20164;-65
2022/09/25 08:54:40;;;;;;;1.85;1.73;;;;;;;23.84;42.77;100194.28;5077354;28;20044;-64
2022/09/25 08:57:33;;;;;;;2.45;1.70;;;;;;;23.57;43.34;100197.44;5061866;28;20154;-64
2022/09/25 09:00:08;;;;;;;3.25;1.40;;;;;;;23.25;44.25;100196.56;5058911;28;20526;-64
2022/09/25 09:02:44;;;;;;;2.97;1.45;;;;;;;23.32;43.58;100197.41;5070233;28;20529;-64
2022/09/25 09:05:36;;;;;;;2.53;1.63;;;;;;;22.97;44.80;100200.69;5039335;28;20518;-64
2022/09/25 09:08:11;;;;;;;4.10;1.50;;;;;;;22.86;44.97;100196.72;5031792;28;20032;-63
2022/09/25 09:10:40;;;;;;;2.53;1.73;;;;;;;22.50;46.03;100199.16;5062349;28;20565;-64
2022/09/25 09:13:30;;;;;;;1.60;1.42;;;;;;;22.31;45.92;100213.69;5063266;28;20051;-64
2022/09/25 09:16:08;;;;;;;4.28;1.48;;;;;;;22.15;46.28;100225.06;5058210;28;20040;-65
2022/09/25 09:18:39;;;;;;;1.90;1.10;;;;;;;21.81;47.24;100228.00;5060943;28;20043;-64
2022/09/25 09:21:25;;;;;;;1.40;1.25;;;;;;;21.58;47.81;100216.63;5070481;28;20519;-64
2022/09/25 09:24:12;;;;;;;5.82;1.30;;;;;;;21.27;48.80;100206.25;5062216;28;20090;-65
2022/09/25 09:26:44;;;;;;;1.80;1.65;;;;;;;21.13;49.32;100218.19;5069483;28;20040;-64
2022/09/25 09:29:41;;;;;;;1.80;1.40;;;;;;;21.05;49.72;100221.09;5060420;28;20043;-67
2022/09/25 09:32:44;;;;;;;2.25;1.42;;;;;;;20.90;50.06;100211.34;5037440;28;20664;-64
2022/09/25 09:35:44;;;;;;;2.05;1.58;;;;;;;20.77;50.64;100223.06;5051288;28;20044;-64
2022/09/25 09:38:41;;;;;;;1.90;1.30;;;;;;;20.76;50.42;100209.63;5050626;28;20040;-64
2022/09/25 09:41:25;;;;;;;1.33;1.20;;;;;;;20.65;51.00;100221.06;5036525;28;20025;-64
2022/09/25 09:44:35;;;;;;;3.30;1.48;;;;;;;20.49;51.83;100219.53;5062964;28;20035;-65
2022/09/25 09:47:10;;;;;;;2.70;1.42;;;;;;;20.44;52.21;100230.16;5000546;28;20149;-63
2022/09/25 09:49:38;;;;;;;;;;;;;;;20.37;52.44;100223.03;4985248;28;20061;-66
2022/09/25 09:52:13;;;;;;;2.97;1.55;;;;;;;20.33;52.57;100214.41;5036098;28;20307;-64
2022/09/25 09:54:45;;;;;;;2.78;1.35;;;;;;;20.29;52.93;100215.00;5062544;28;20741;-64
2022/09/25 09:57:22;;;;;;;2.13;1.65;;;;;;;20.25;53.05;100213.72;5057686;28;20029;-64
2022/09/25 09:59:54;;;;;;;3.25;2.08;;;;;;;20.25;53.32;100214.56;5058915;28;20032;-64
2022/09/25 10:02:35;;;;;;;1.92;1.50;;;;;;;20.26;53.39;100212.66;5053258;28;20700;-64
2022/09/25 10:05:06;;;;;;;4.72;1.65;;;;;;;20.22;53.62;100208.66;5061437;28;20032;-64
2022/09/25 10:07:37;;;;;;;2.00;1.52;;;;;;;20.27;54.04;100219.78;5038446;28;20087;-64
2022/09/25 10:10:13;;;;;;;2.25;1.55;;;;;;;20.31;53.31;100219.19;5040118;28;20029;-64
2022/09/25 10:12:43;;;;;;;1.83;1.50;;;;;;;20.27;53.52;100215.19;5058570;28;20051;-64
2022/09/25 10:15:47;;;;;;;2.70;1.92;;;;;;;20.25;53.66;100216.44;5028251;28;20060;-65
2022/09/25 10:18:14;;;;;;;2.17;1.90;;;;;;;20.28;54.19;100213.31;5028861;28;20036;-64
2022/09/25 10:21:14;;;;;;;1.90;1.45;;;;;;;20.25;54.12;100211.84;5060676;28;20021;-64
2022/09/25 10:24:02;;;;;;;2.65;1.70;;;;;;;20.33;53.85;100213.53;5062833;28;20048;-63
2022/09/25 10:26:39;;;;;;;2.92;1.60;;;;;;;20.38;53.82;100221.97;5060884;28;20020;-65
2022/09/25 10:29:26;;;;;;;2.58;1.38;;;;;;;20.47;53.28;100212.59;5058393;28;20044;-64
2022/09/25 10:32:17;;;;;;;3.70;1.88;;;;;;;20.43;53.44;100219.47;5035587;28;20740;-63
2022/09/25 10:34:52;;;;;;;1.92;1.60;;;;;;;20.30;53.65;100189.41;5055233;28;20095;-64
2022/09/25 10:37:20;;;;;;;;;;;;;;;20.34;54.22;100204.34;5045441;28;20032;-64
2022/09/25 10:40:00;;;;;;;3.60;1.77;;;;;;;20.34;54.42;100207.06;5063517;28;19920;-64
2022/09/25 10:42:40;;;;;;;2.33;1.65;;;;;;;20.39;53.13;100180.06;5075385;28;20028;-63
2022/09/25 10:45:21;;;;;;;3.10;1.90;;;;;;;20.42;53.51;100213.19;5076709;28;20479;-64
2022/09/25 10:50:33;;;;;;;1.98;1.77;;;;;;;20.47;53.38;100198.97;5068008;28;20399;-67
2022/09/25 10:52:58;;;;;;;2.53;1.85;;;;;;;20.44;53.74;100185.75;5062546;28;20036;-66
2022/09/25 10:55:29;;;;;;;4.40;2.22;;;;;;;20.45;53.59;100188.28;5065835;28;20055;-69
2022/09/25 10:58:10;;;;;;;3.22;2.00;;;;;;;20.47;53.60;100179.91;5064019;28;20054;-66
2022/09/25 11:00:57;;;;;;;4.20;2.03;;;;;;;20.51;53.51;100182.03;5045943;28;20032;-67
2022/09/25 11:03:31;;;;;;;1.80;1.50;;;;;;;20.54;53.42;100178.06;5063759;28;20074;-66
2022/09/25 11:06:33;;;;;;;4.47;2.07;;;;;;;20.58;53.35;100179.31;5067521;28;20046;-66
2022/09/25 11:09:31;;;;;;;2.10;1.73;;;;;;;20.61;53.36;100173.47;5034267;28;20059;-67
2022/09/25 11:12:13;;;;;;;1.90;1.70;;;;;;;20.66;53.34;100168.28;5056276;28;20044;-66
2022/09/25 11:14:56;;;;;;;2.15;1.80;;;;;;;20.64;53.32;100159.44;5076501;28;20085;-65
2022/09/25 11:17:42;;;;;;;2.35;2.00;;;;;;;20.69;52.92;100167.84;5051657;28;20081;-66
2022/09/25 11:20:30;;;;;;;3.25;2.00;;;;;;;20.71;53.20;100165.75;5048451;28;20041;-66
2022/09/25 11:23:21;;;;;;;2.08;1.88;;;;;;;20.80;52.83;100156.38;5046665;28;20028;-66
2022/09/25 11:26:07;;;;;;;3.97;1.95;;;;;;;20.78;53.11;100155.72;5049210;28;20040;-67
2022/09/25 11:28:41;;;;;;;2.75;1.90;;;;;;;20.78;53.35;100156.56;5079433;28;20157;-66
2022/09/25 11:31:25;;;;;;;3.97;1.90;;;;;;;20.79;53.00;100154.69;5065967;28;20047;-66
2022/09/25 11:34:06;;;;;;;3.65;2.00;;;;;;;20.77;53.11;100154.91;5066944;28;20083;-66
2022/09/25 11:36:42;;;;;;;2.00;1.77;;;;;;;20.71;53.08;100135.78;5045630;28;20491;-65
2022/09/25 11:42:08;;;;;;;2.33;1.85;;;;;;;20.73;53.22;100142.69;5062951;28;20067;-65
2022/09/25 11:44:44;;;;;;;4.00;1.92;;;;;;;20.76;53.26;100152.38;5062836;28;20384;-67
2022/09/25 11:47:15;;;;;;;2.25;1.88;;;;;;;20.76;53.46;100166.81;5062696;28;20120;-67
2022/09/25 11:49:41;;;;;;;3.30;2.00;;;;;;;20.74;53.50;100162.63;5064507;28;20107;-67
2022/09/25 11:52:16;;;;;;;3.25;1.90;;;;;;;20.72;53.04;100151.94;5061828;28;20073;-64
2022/09/25 11:55:06;;;;;;;6.03;2.15;;;;;;;20.70;53.33;100164.09;5067001;28;20440;-67
2022/09/25 11:57:49;;;;;;;5.30;2.17;;;;;;;20.65;53.39;100156.50;5070108;28;20031;-68
2022/09/25 12:00:19;;;;;;;15.05;2.55;;;;;;;20.64;53.50;100154.84;5067234;28;20031;-65
2022/09/25 12:03:17;;;;;;;2.55;1.98;;;;;;;20.70;53.19;100155.91;5068339;28;20570;-66
2022/09/25 12:06:04;;;;;;;2.45;1.70;;;;;;;20.62;53.74;100151.47;5048138;28;20040;-68
2022/09/25 12:08:41;;;;;;;2.33;1.65;;;;;;;20.60;53.61;100164.44;5064605;28;20024;-67